SWA1757 KDCA-KOMA
Flight info
| Callsign | SWA1757 |
|---|---|
| Flight time | 2h 34m |
| Altitude | 40000 |
| Route | HORTO4 BUFFR Q178 DJB CPONE JOT J146 VORIN KG69K IOW SINGR DSM LANTK2 |
| Aircraft | B737/M-SADE2E3GIJ4RWZ/LB1D1 |
Departure
| Time | 2026-05-07 21:25 |
|---|---|
| Airport | Ronald Reagan Washington National Airport (KDCA) |
Arrival
| Time | 2026-05-07 23:59 |
|---|---|
| Airport | Eppley Airfield (KOMA) |
| Time | Latitude | Longitude | Altitude | Speed | Heading |
|---|---|---|---|---|---|
| 2026-05-07 21:11 | 38.84648 | -77.04328 | 26 ft | 0 kts | 62° |
| 2026-05-07 21:17 | 38.84647 | -77.04332 | 23 ft | 3 kts | 62° |
| 2026-05-07 21:17 | 38.84635 | -77.04361 | 23 ft | 2 kts | 62° |
| 2026-05-07 21:17 | 38.84626 | -77.04386 | 23 ft | 4 kts | 96° |
| 2026-05-07 21:18 | 38.84634 | -77.04406 | 25 ft | 2 kts | 139° |
| 2026-05-07 21:18 | 38.84649 | -77.04429 | 26 ft | 4 kts | 98° |
| 2026-05-07 21:18 | 38.84644 | -77.04457 | 23 ft | 2 kts | 52° |
| 2026-05-07 21:18 | 38.84633 | -77.04476 | 23 ft | 0 kts | 52° |
| 2026-05-07 21:21 | 38.84638 | -77.04468 | 25 ft | 6 kts | 52° |
| 2026-05-07 21:22 | 38.84615 | -77.04383 | 27 ft | 18 kts | 135° |
| 2026-05-07 21:22 | 38.84570 | -77.04230 | 23 ft | 22 kts | 79° |
| 2026-05-07 21:22 | 38.84634 | -77.04039 | 24 ft | 27 kts | 34° |
| 2026-05-07 21:22 | 38.84820 | -77.03945 | 25 ft | 31 kts | 5° |
| 2026-05-07 21:23 | 38.85023 | -77.03903 | 23 ft | 30 kts | 355° |
| 2026-05-07 21:23 | 38.85222 | -77.03924 | 24 ft | 28 kts | 355° |
| 2026-05-07 21:23 | 38.85408 | -77.03943 | 24 ft | 26 kts | 355° |
| 2026-05-07 21:23 | 38.85590 | -77.03962 | 27 ft | 28 kts | 355° |
| 2026-05-07 21:24 | 38.85786 | -77.03980 | 29 ft | 28 kts | 356° |
| 2026-05-07 21:24 | 38.85912 | -77.03908 | 24 ft | 19 kts | 101° |
| 2026-05-07 21:24 | 38.85717 | -77.03833 | 24 ft | 63 kts | 175° |
| 2026-05-07 21:24 | 38.85012 | -77.03761 | 26 ft | 136 kts | 175° |
| 2026-05-07 21:25 | 38.83940 | -77.03633 | 403 ft | 161 kts | 173° |
| 2026-05-07 21:25 | 38.82810 | -77.03472 | 1221 ft | 172 kts | 180° |
| 2026-05-07 21:25 | 38.81537 | -77.03524 | 1990 ft | 192 kts | 181° |
| 2026-05-07 21:25 | 38.80159 | -77.03547 | 2816 ft | 204 kts | 181° |
| 2026-05-07 21:26 | 38.78687 | -77.03538 | 3548 ft | 221 kts | 180° |
| 2026-05-07 21:26 | 38.77056 | -77.03576 | 4040 ft | 247 kts | 191° |
| 2026-05-07 21:26 | 38.75372 | -77.04437 | 4389 ft | 279 kts | 222° |
| 2026-05-07 21:26 | 38.74353 | -77.06477 | 5614 ft | 272 kts | 257° |
| 2026-05-07 21:27 | 38.74271 | -77.08859 | 6974 ft | 262 kts | 276° |
| 2026-05-07 21:27 | 38.74376 | -77.11208 | 8098 ft | 270 kts | 272° |
| 2026-05-07 21:27 | 38.74375 | -77.13649 | 9034 ft | 278 kts | 269° |
| 2026-05-07 21:27 | 38.74244 | -77.16042 | 10565 ft | 256 kts | 265° |
| 2026-05-07 21:28 | 38.74091 | -77.18369 | 11430 ft | 273 kts | 265° |
| 2026-05-07 21:28 | 38.73996 | -77.20966 | 11512 ft | 309 kts | 271° |
| 2026-05-07 21:28 | 38.74563 | -77.23709 | 11797 ft | 340 kts | 292° |
| 2026-05-07 21:28 | 38.76149 | -77.26085 | 12550 ft | 364 kts | 316° |
| 2026-05-07 21:29 | 38.78460 | -77.27596 | 13437 ft | 382 kts | 331° |
| 2026-05-07 21:29 | 38.80990 | -77.28771 | 14171 ft | 390 kts | 332° |
| 2026-05-07 21:29 | 38.83561 | -77.29964 | 14924 ft | 395 kts | 331° |
| 2026-05-07 21:29 | 38.86143 | -77.31221 | 15731 ft | 396 kts | 329° |
| 2026-05-07 21:30 | 38.88669 | -77.32639 | 16500 ft | 397 kts | 326° |
| 2026-05-07 21:30 | 38.91188 | -77.34149 | 17213 ft | 401 kts | 325° |
| 2026-05-07 21:30 | 38.93692 | -77.35669 | 17876 ft | 405 kts | 325° |
| 2026-05-07 21:30 | 38.96260 | -77.37216 | 18542 ft | 410 kts | 325° |
| 2026-05-07 21:31 | 38.98865 | -77.38766 | 19212 ft | 414 kts | 325° |
| 2026-05-07 21:31 | 39.01485 | -77.40311 | 19852 ft | 417 kts | 325° |
| 2026-05-07 21:31 | 39.04145 | -77.41874 | 20469 ft | 421 kts | 325° |
| 2026-05-07 21:31 | 39.06824 | -77.43447 | 21059 ft | 424 kts | 325° |
| 2026-05-07 21:32 | 39.09520 | -77.45033 | 21663 ft | 427 kts | 325° |
| 2026-05-07 21:32 | 39.12207 | -77.46594 | 22183 ft | 433 kts | 327° |
| 2026-05-07 21:32 | 39.14123 | -77.47519 | 22519 ft | 441 kts | 330° |
| 2026-05-07 21:32 | 39.18056 | -77.49066 | 23164 ft | 449 kts | 333° |
| 2026-05-07 21:33 | 39.21080 | -77.50158 | 23628 ft | 453 kts | 334° |
| 2026-05-07 21:33 | 39.24122 | -77.51270 | 24073 ft | 456 kts | 333° |
| 2026-05-07 21:33 | 39.27180 | -77.52425 | 24517 ft | 458 kts | 333° |
| 2026-05-07 21:33 | 39.30239 | -77.53611 | 24966 ft | 459 kts | 332° |
| 2026-05-07 21:34 | 39.32256 | -77.54405 | 25262 ft | 460 kts | 332° |
| 2026-05-07 21:34 | 39.35334 | -77.55623 | 25664 ft | 463 kts | 332° |
| 2026-05-07 21:34 | 39.38421 | -77.56845 | 26040 ft | 466 kts | 332° |
| 2026-05-07 21:34 | 39.41516 | -77.58111 | 26403 ft | 463 kts | 328° |
| 2026-05-07 21:35 | 39.44228 | -77.60113 | 26702 ft | 439 kts | 310° |
| 2026-05-07 21:35 | 39.46329 | -77.62866 | 27066 ft | 424 kts | 299° |
| 2026-05-07 21:35 | 39.47866 | -77.66041 | 27424 ft | 411 kts | 287° |
| 2026-05-07 21:35 | 39.48931 | -77.69467 | 27739 ft | 409 kts | 284° |
| 2026-05-07 21:36 | 39.49920 | -77.72920 | 28069 ft | 409 kts | 283° |
| 2026-05-07 21:36 | 39.50909 | -77.76367 | 28450 ft | 408 kts | 283° |
| 2026-05-07 21:36 | 39.51913 | -77.79789 | 28881 ft | 406 kts | 284° |
| 2026-05-07 21:36 | 39.52932 | -77.83198 | 29341 ft | 404 kts | 284° |
| 2026-05-07 21:37 | 39.53947 | -77.86584 | 29775 ft | 402 kts | 284° |
| 2026-05-07 21:37 | 39.54956 | -77.89901 | 30228 ft | 400 kts | 284° |
| 2026-05-07 21:37 | 39.55987 | -77.93250 | 30656 ft | 399 kts | 284° |
| 2026-05-07 21:37 | 39.57015 | -77.96588 | 31044 ft | 398 kts | 284° |
| 2026-05-07 21:38 | 39.58041 | -77.99920 | 31443 ft | 397 kts | 284° |
| 2026-05-07 21:38 | 39.59062 | -78.03240 | 31864 ft | 395 kts | 284° |
| 2026-05-07 21:38 | 39.60073 | -78.06535 | 32293 ft | 393 kts | 284° |
| 2026-05-07 21:38 | 39.61079 | -78.09824 | 32662 ft | 391 kts | 284° |
| 2026-05-07 21:39 | 39.62079 | -78.13100 | 33016 ft | 391 kts | 284° |
| 2026-05-07 21:39 | 39.63075 | -78.16371 | 33363 ft | 389 kts | 284° |
| 2026-05-07 21:39 | 39.64071 | -78.19642 | 33746 ft | 387 kts | 284° |
| 2026-05-07 21:39 | 39.65057 | -78.22888 | 34092 ft | 386 kts | 284° |
| 2026-05-07 21:40 | 39.66028 | -78.26089 | 34419 ft | 384 kts | 284° |
| 2026-05-07 21:40 | 39.67008 | -78.29322 | 34668 ft | 385 kts | 284° |
| 2026-05-07 21:40 | 39.67987 | -78.32555 | 34898 ft | 385 kts | 284° |
| 2026-05-07 21:40 | 39.68970 | -78.35806 | 35169 ft | 385 kts | 284° |
| 2026-05-07 21:41 | 39.69947 | -78.39040 | 35444 ft | 384 kts | 284° |
| 2026-05-07 21:41 | 39.70920 | -78.42260 | 35721 ft | 383 kts | 284° |
| 2026-05-07 21:41 | 39.71892 | -78.45486 | 35934 ft | 384 kts | 284° |
| 2026-05-07 21:41 | 39.72864 | -78.48718 | 36153 ft | 384 kts | 283° |
| 2026-05-07 21:42 | 39.73833 | -78.51942 | 36392 ft | 383 kts | 283° |
| 2026-05-07 21:42 | 39.74803 | -78.55171 | 36585 ft | 384 kts | 284° |
| 2026-05-07 21:42 | 39.75758 | -78.58348 | 36954 ft | 379 kts | 284° |
| 2026-05-07 21:42 | 39.76707 | -78.61509 | 37395 ft | 373 kts | 283° |
| 2026-05-07 21:43 | 39.77648 | -78.64647 | 37659 ft | 372 kts | 283° |
| 2026-05-07 21:43 | 39.78586 | -78.67788 | 37818 ft | 373 kts | 283° |
| 2026-05-07 21:43 | 39.80468 | -78.74109 | 38065 ft | 376 kts | 283° |
| 2026-05-07 21:44 | 39.81408 | -78.77259 | 38415 ft | 371 kts | 283° |
| 2026-05-07 21:44 | 39.82341 | -78.80392 | 38547 ft | 372 kts | 283° |
| 2026-05-07 21:44 | 39.84215 | -78.86711 | 38783 ft | 374 kts | 283° |
| 2026-05-07 21:45 | 39.85151 | -78.89868 | 38960 ft | 374 kts | 283° |
| 2026-05-07 21:45 | 39.86085 | -78.93017 | 39144 ft | 373 kts | 283° |
| 2026-05-07 21:45 | 39.87019 | -78.96176 | 39266 ft | 374 kts | 283° |
| 2026-05-07 21:45 | 39.87952 | -78.99339 | 39394 ft | 375 kts | 283° |
| 2026-05-07 21:46 | 39.88886 | -79.02505 | 39550 ft | 374 kts | 284° |
| 2026-05-07 21:46 | 39.89819 | -79.05671 | 39681 ft | 375 kts | 284° |
| 2026-05-07 21:46 | 39.90753 | -79.08844 | 39822 ft | 375 kts | 284° |
| 2026-05-07 21:46 | 39.91686 | -79.12018 | 39883 ft | 376 kts | 284° |
| 2026-05-07 21:47 | 39.93560 | -79.18401 | 39904 ft | 376 kts | 284° |
| 2026-05-07 21:47 | 39.95408 | -79.24706 | 39904 ft | 373 kts | 284° |
| 2026-05-07 21:48 | 39.97252 | -79.31024 | 39901 ft | 372 kts | 284° |
| 2026-05-07 21:48 | 39.99086 | -79.37319 | 39922 ft | 371 kts | 284° |
| 2026-05-07 21:49 | 40.01281 | -79.43489 | 39908 ft | 382 kts | 294° |
| 2026-05-07 21:49 | 40.04270 | -79.49286 | 39916 ft | 386 kts | 295° |
| 2026-05-07 21:50 | 40.07296 | -79.55113 | 39914 ft | 387 kts | 295° |
| 2026-05-07 21:50 | 40.10286 | -79.60910 | 39919 ft | 388 kts | 295° |
| 2026-05-07 21:51 | 40.13290 | -79.66766 | 39917 ft | 388 kts | 295° |
| 2026-05-07 21:51 | 40.16290 | -79.72628 | 39917 ft | 387 kts | 295° |
| 2026-05-07 21:52 | 40.19282 | -79.78486 | 39916 ft | 387 kts | 295° |
| 2026-05-07 21:52 | 40.22267 | -79.84343 | 39908 ft | 386 kts | 295° |
| 2026-05-07 21:53 | 40.25219 | -79.90151 | 39907 ft | 385 kts | 295° |
| 2026-05-07 21:53 | 40.28184 | -79.95992 | 39900 ft | 384 kts | 295° |
| 2026-05-07 21:54 | 40.31141 | -80.01824 | 39896 ft | 385 kts | 295° |
| 2026-05-07 21:54 | 40.34095 | -80.07667 | 39910 ft | 384 kts | 295° |
| 2026-05-07 21:55 | 40.37043 | -80.13524 | 39902 ft | 385 kts | 295° |
| 2026-05-07 21:55 | 40.39991 | -80.19397 | 39910 ft | 385 kts | 295° |
| 2026-05-07 21:56 | 40.42934 | -80.25271 | 39905 ft | 385 kts | 295° |
| 2026-05-07 21:56 | 40.45863 | -80.31119 | 39914 ft | 385 kts | 295° |
| 2026-05-07 21:57 | 40.48812 | -80.37022 | 39911 ft | 386 kts | 295° |
| 2026-05-07 21:57 | 40.51758 | -80.42926 | 39910 ft | 387 kts | 295° |
| 2026-05-07 21:58 | 40.54714 | -80.48862 | 39910 ft | 388 kts | 295° |
| 2026-05-07 21:58 | 40.57667 | -80.54804 | 39919 ft | 389 kts | 295° |
| 2026-05-07 21:59 | 40.60622 | -80.60762 | 39918 ft | 389 kts | 295° |
| 2026-05-07 21:59 | 40.63556 | -80.66703 | 39918 ft | 390 kts | 295° |
| 2026-05-07 22:00 | 40.66513 | -80.72700 | 39917 ft | 391 kts | 295° |
| 2026-05-07 22:00 | 40.69477 | -80.78709 | 39926 ft | 391 kts | 295° |
| 2026-05-07 22:01 | 40.72453 | -80.84738 | 39931 ft | 391 kts | 295° |
| 2026-05-07 22:01 | 40.75425 | -80.90773 | 39934 ft | 392 kts | 295° |
| 2026-05-07 22:02 | 40.78371 | -80.96770 | 39932 ft | 392 kts | 295° |
| 2026-05-07 22:02 | 40.81344 | -81.02831 | 39935 ft | 393 kts | 295° |
| 2026-05-07 22:03 | 40.84316 | -81.08903 | 39934 ft | 393 kts | 295° |
| 2026-05-07 22:03 | 40.87285 | -81.14979 | 39947 ft | 393 kts | 295° |
| 2026-05-07 22:04 | 40.90250 | -81.21071 | 39941 ft | 394 kts | 295° |
| 2026-05-07 22:04 | 40.93192 | -81.27131 | 39946 ft | 394 kts | 295° |
| 2026-05-07 22:05 | 40.96151 | -81.33235 | 39943 ft | 394 kts | 295° |
| 2026-05-07 22:05 | 40.99113 | -81.39359 | 39946 ft | 395 kts | 295° |
| 2026-05-07 22:06 | 41.02077 | -81.45498 | 39945 ft | 396 kts | 295° |
| 2026-05-07 22:06 | 41.05047 | -81.51665 | 39949 ft | 396 kts | 295° |
| 2026-05-07 22:07 | 41.07985 | -81.57772 | 39956 ft | 396 kts | 295° |
| 2026-05-07 22:07 | 41.10953 | -81.63955 | 39959 ft | 396 kts | 295° |
| 2026-05-07 22:08 | 41.13913 | -81.70134 | 39964 ft | 397 kts | 295° |
| 2026-05-07 22:08 | 41.16871 | -81.76319 | 39983 ft | 398 kts | 295° |
| 2026-05-07 22:09 | 41.19842 | -81.82540 | 39967 ft | 399 kts | 295° |
| 2026-05-07 22:09 | 41.22792 | -81.88734 | 39974 ft | 399 kts | 295° |
| 2026-05-07 22:10 | 41.25762 | -81.94983 | 39978 ft | 400 kts | 295° |
| 2026-05-07 22:10 | 41.28736 | -82.01255 | 39966 ft | 401 kts | 295° |
| 2026-05-07 22:11 | 41.31715 | -82.07545 | 39971 ft | 402 kts | 295° |
| 2026-05-07 22:11 | 41.34464 | -82.13956 | 39980 ft | 394 kts | 286° |
| 2026-05-07 22:12 | 41.36030 | -82.20890 | 39979 ft | 388 kts | 276° |
| 2026-05-07 22:12 | 41.36554 | -82.27960 | 39976 ft | 387 kts | 272° |
| 2026-05-07 22:13 | 41.36944 | -82.35092 | 39978 ft | 387 kts | 272° |
| 2026-05-07 22:13 | 41.37339 | -82.42256 | 39988 ft | 387 kts | 272° |
| 2026-05-07 22:14 | 41.37743 | -82.49422 | 39982 ft | 388 kts | 272° |
| 2026-05-07 22:14 | 41.38147 | -82.56580 | 39973 ft | 388 kts | 272° |
| 2026-05-07 22:15 | 41.38554 | -82.63756 | 39972 ft | 387 kts | 272° |
| 2026-05-07 22:15 | 41.38950 | -82.70904 | 39970 ft | 387 kts | 272° |
| 2026-05-07 22:16 | 41.39340 | -82.78020 | 39957 ft | 387 kts | 272° |
| 2026-05-07 22:16 | 41.39729 | -82.85176 | 39958 ft | 387 kts | 272° |
| 2026-05-07 22:17 | 41.40114 | -82.92337 | 39963 ft | 387 kts | 272° |
| 2026-05-07 22:17 | 41.40490 | -82.99471 | 39975 ft | 387 kts | 272° |
| 2026-05-07 22:18 | 41.41053 | -83.10195 | 39980 ft | 387 kts | 272° |
| 2026-05-07 22:19 | 41.41423 | -83.17352 | 39975 ft | 387 kts | 272° |
| 2026-05-07 22:19 | 41.41787 | -83.24509 | 39980 ft | 387 kts | 272° |
| 2026-05-07 22:20 | 41.42144 | -83.31616 | 39968 ft | 387 kts | 272° |
| 2026-05-07 22:20 | 41.42500 | -83.38771 | 39968 ft | 388 kts | 272° |
| 2026-05-07 22:21 | 41.42853 | -83.45958 | 39966 ft | 388 kts | 272° |
| 2026-05-07 22:21 | 41.43142 | -83.51927 | 39980 ft | 388 kts | 272° |
| 2026-05-07 22:22 | 41.43485 | -83.59123 | 39970 ft | 389 kts | 272° |
| 2026-05-07 22:22 | 41.43825 | -83.66329 | 39971 ft | 389 kts | 272° |
| 2026-05-07 22:23 | 41.44162 | -83.73532 | 39976 ft | 390 kts | 272° |
| 2026-05-07 22:23 | 41.44494 | -83.80742 | 39975 ft | 390 kts | 272° |
| 2026-05-07 22:24 | 41.44822 | -83.87976 | 39967 ft | 391 kts | 272° |
| 2026-05-07 22:24 | 41.45146 | -83.95213 | 39965 ft | 391 kts | 272° |
| 2026-05-07 22:25 | 41.45464 | -84.02403 | 39967 ft | 391 kts | 271° |
| 2026-05-07 22:25 | 41.45778 | -84.09649 | 39971 ft | 391 kts | 272° |
| 2026-05-07 22:26 | 41.46088 | -84.16889 | 39977 ft | 391 kts | 272° |
| 2026-05-07 22:26 | 41.46394 | -84.24132 | 39979 ft | 391 kts | 272° |
| 2026-05-07 22:27 | 41.46693 | -84.31313 | 39972 ft | 390 kts | 271° |
| 2026-05-07 22:27 | 41.46990 | -84.38546 | 39970 ft | 390 kts | 271° |
| 2026-05-07 22:28 | 41.47282 | -84.45791 | 39967 ft | 390 kts | 271° |
| 2026-05-07 22:28 | 41.47568 | -84.53011 | 39973 ft | 390 kts | 271° |
| 2026-05-07 22:29 | 41.47849 | -84.60194 | 39981 ft | 389 kts | 271° |
| 2026-05-07 22:29 | 41.48126 | -84.67399 | 39977 ft | 389 kts | 271° |
| 2026-05-07 22:30 | 41.48399 | -84.74609 | 39973 ft | 389 kts | 271° |
| 2026-05-07 22:30 | 41.48667 | -84.81810 | 39970 ft | 389 kts | 271° |
| 2026-05-07 22:31 | 41.48930 | -84.89012 | 39964 ft | 388 kts | 271° |
| 2026-05-07 22:31 | 41.49189 | -84.96210 | 39963 ft | 388 kts | 271° |
| 2026-05-07 22:32 | 41.49440 | -85.03356 | 39967 ft | 388 kts | 271° |
| 2026-05-07 22:32 | 41.49691 | -85.10548 | 39974 ft | 388 kts | 271° |
| 2026-05-07 22:33 | 41.49936 | -85.17753 | 39973 ft | 388 kts | 271° |
| 2026-05-07 22:33 | 41.50177 | -85.24947 | 39981 ft | 388 kts | 271° |
| 2026-05-07 22:34 | 41.50414 | -85.32151 | 39982 ft | 389 kts | 271° |
| 2026-05-07 22:34 | 41.50646 | -85.39363 | 39979 ft | 389 kts | 271° |
| 2026-05-07 22:35 | 41.50872 | -85.46542 | 39971 ft | 390 kts | 271° |
| 2026-05-07 22:35 | 41.51096 | -85.53782 | 39982 ft | 390 kts | 271° |
| 2026-05-07 22:36 | 41.51317 | -85.61039 | 39980 ft | 391 kts | 271° |
| 2026-05-07 22:36 | 41.51531 | -85.68255 | 39961 ft | 392 kts | 271° |
| 2026-05-07 22:37 | 41.51742 | -85.75540 | 39962 ft | 393 kts | 271° |
| 2026-05-07 22:37 | 41.51950 | -85.82835 | 39961 ft | 393 kts | 271° |
| 2026-05-07 22:38 | 41.52153 | -85.90139 | 39962 ft | 394 kts | 271° |
| 2026-05-07 22:38 | 41.52353 | -85.97446 | 39958 ft | 394 kts | 271° |
| 2026-05-07 22:39 | 41.52543 | -86.04765 | 39966 ft | 394 kts | 271° |
| 2026-05-07 22:39 | 41.52682 | -86.12044 | 39955 ft | 394 kts | 271° |
| 2026-05-07 22:40 | 41.52806 | -86.19362 | 39953 ft | 394 kts | 271° |
| 2026-05-07 22:40 | 41.52927 | -86.26677 | 39953 ft | 393 kts | 271° |
| 2026-05-07 22:41 | 41.53048 | -86.33978 | 39956 ft | 393 kts | 271° |
| 2026-05-07 22:41 | 41.53165 | -86.41271 | 39952 ft | 393 kts | 270° |
| 2026-05-07 22:42 | 41.53277 | -86.48523 | 39959 ft | 392 kts | 270° |
| 2026-05-07 22:42 | 41.53385 | -86.55799 | 39953 ft | 392 kts | 271° |
| 2026-05-07 22:43 | 41.53490 | -86.63071 | 39953 ft | 391 kts | 271° |
| 2026-05-07 22:43 | 41.53588 | -86.70325 | 39956 ft | 390 kts | 270° |
| 2026-05-07 22:44 | 41.53682 | -86.77570 | 39956 ft | 389 kts | 270° |
| 2026-05-07 22:44 | 41.53772 | -86.84793 | 39948 ft | 389 kts | 270° |
| 2026-05-07 22:45 | 41.53855 | -86.91960 | 39956 ft | 389 kts | 270° |
| 2026-05-07 22:45 | 41.53934 | -86.99174 | 39954 ft | 388 kts | 270° |
| 2026-05-07 22:46 | 41.54009 | -87.06391 | 39956 ft | 388 kts | 270° |
| 2026-05-07 22:46 | 41.54080 | -87.13609 | 39949 ft | 388 kts | 270° |
| 2026-05-07 22:47 | 41.54146 | -87.20825 | 39944 ft | 389 kts | 270° |
| 2026-05-07 22:47 | 41.54207 | -87.27995 | 39936 ft | 389 kts | 270° |
| 2026-05-07 22:48 | 41.54264 | -87.35227 | 39936 ft | 389 kts | 270° |
| 2026-05-07 22:48 | 41.54318 | -87.42448 | 39932 ft | 389 kts | 270° |
| 2026-05-07 22:49 | 41.54366 | -87.49681 | 39932 ft | 389 kts | 270° |
| 2026-05-07 22:49 | 41.54409 | -87.56919 | 39936 ft | 390 kts | 270° |
| 2026-05-07 22:50 | 41.54448 | -87.64115 | 39932 ft | 390 kts | 270° |
| 2026-05-07 22:50 | 41.54485 | -87.71362 | 39936 ft | 390 kts | 270° |
| 2026-05-07 22:51 | 41.54515 | -87.78614 | 39934 ft | 391 kts | 270° |
| 2026-05-07 22:51 | 41.54541 | -87.85883 | 39933 ft | 392 kts | 271° |
| 2026-05-07 22:52 | 41.54562 | -87.93170 | 39927 ft | 393 kts | 270° |
| 2026-05-07 22:52 | 41.54579 | -88.00478 | 39927 ft | 394 kts | 270° |
| 2026-05-07 22:53 | 41.54592 | -88.07790 | 39921 ft | 394 kts | 270° |
| 2026-05-07 22:53 | 41.54600 | -88.15105 | 39920 ft | 393 kts | 270° |
| 2026-05-07 22:54 | 41.54603 | -88.22411 | 39913 ft | 393 kts | 270° |
| 2026-05-07 22:54 | 41.54602 | -88.29650 | 39919 ft | 392 kts | 270° |
| 2026-05-07 22:55 | 41.54618 | -88.36942 | 39921 ft | 392 kts | 271° |
| 2026-05-07 22:55 | 41.54663 | -88.44221 | 39905 ft | 392 kts | 271° |
| 2026-05-07 22:56 | 41.54704 | -88.51476 | 39911 ft | 390 kts | 271° |
| 2026-05-07 22:56 | 41.54737 | -88.58724 | 39910 ft | 390 kts | 271° |
| 2026-05-07 22:57 | 41.54765 | -88.65956 | 39906 ft | 389 kts | 271° |
| 2026-05-07 22:57 | 41.54789 | -88.73149 | 39904 ft | 389 kts | 270° |
| 2026-05-07 22:58 | 41.54806 | -88.80373 | 39905 ft | 388 kts | 270° |
| 2026-05-07 22:58 | 41.54820 | -88.87573 | 39917 ft | 388 kts | 270° |
| 2026-05-07 22:59 | 41.54828 | -88.94781 | 39918 ft | 387 kts | 270° |
| 2026-05-07 22:59 | 41.54832 | -89.01932 | 39916 ft | 388 kts | 270° |
| 2026-05-07 23:00 | 41.54832 | -89.09138 | 39917 ft | 387 kts | 270° |
| 2026-05-07 23:00 | 41.54828 | -89.16347 | 39914 ft | 387 kts | 270° |
| 2026-05-07 23:01 | 41.54820 | -89.23544 | 39918 ft | 388 kts | 270° |
| 2026-05-07 23:01 | 41.54806 | -89.30755 | 39921 ft | 389 kts | 270° |
| 2026-05-07 23:02 | 41.54548 | -89.37930 | 39923 ft | 390 kts | 266° |
| 2026-05-07 23:02 | 41.54020 | -89.45153 | 39913 ft | 391 kts | 266° |
| 2026-05-07 23:03 | 41.53487 | -89.52385 | 39909 ft | 391 kts | 266° |
| 2026-05-07 23:03 | 41.52964 | -89.59624 | 39910 ft | 392 kts | 266° |
| 2026-05-07 23:04 | 41.52440 | -89.66876 | 39912 ft | 392 kts | 266° |
| 2026-05-07 23:04 | 41.51918 | -89.74077 | 39905 ft | 392 kts | 266° |
| 2026-05-07 23:05 | 41.51386 | -89.81343 | 39909 ft | 392 kts | 266° |
| 2026-05-07 23:05 | 41.50852 | -89.88583 | 39908 ft | 393 kts | 266° |
| 2026-05-07 23:06 | 41.50312 | -89.95851 | 39909 ft | 393 kts | 266° |
| 2026-05-07 23:06 | 41.50008 | -90.03097 | 39910 ft | 391 kts | 272° |
| 2026-05-07 23:07 | 41.50153 | -90.10368 | 39902 ft | 391 kts | 272° |
| 2026-05-07 23:07 | 41.50278 | -90.16397 | 39900 ft | 391 kts | 272° |
| 2026-05-07 23:08 | 41.50413 | -90.23656 | 39899 ft | 392 kts | 272° |
| 2026-05-07 23:08 | 41.50556 | -90.32109 | 39899 ft | 391 kts | 272° |
| 2026-05-07 23:09 | 41.50651 | -90.38148 | 39901 ft | 392 kts | 272° |
| 2026-05-07 23:09 | 41.50761 | -90.45408 | 39898 ft | 391 kts | 272° |
| 2026-05-07 23:10 | 41.50867 | -90.52665 | 39899 ft | 391 kts | 272° |
| 2026-05-07 23:10 | 41.50966 | -90.59932 | 39901 ft | 391 kts | 272° |
| 2026-05-07 23:11 | 41.51062 | -90.67175 | 39896 ft | 390 kts | 272° |
| 2026-05-07 23:11 | 41.51154 | -90.74410 | 39897 ft | 389 kts | 272° |
| 2026-05-07 23:12 | 41.51240 | -90.81585 | 39901 ft | 389 kts | 272° |
| 2026-05-07 23:12 | 41.51323 | -90.88799 | 39905 ft | 389 kts | 271° |
| 2026-05-07 23:13 | 41.51400 | -90.96012 | 39906 ft | 388 kts | 271° |
| 2026-05-07 23:13 | 41.51474 | -91.03222 | 39907 ft | 388 kts | 271° |
| 2026-05-07 23:14 | 41.51542 | -91.10387 | 39918 ft | 388 kts | 272° |
| 2026-05-07 23:14 | 41.51606 | -91.17585 | 39916 ft | 388 kts | 271° |
| 2026-05-07 23:15 | 41.51664 | -91.24801 | 39916 ft | 389 kts | 271° |
| 2026-05-07 23:15 | 41.51721 | -91.32016 | 39918 ft | 389 kts | 271° |
| 2026-05-07 23:16 | 41.51774 | -91.39237 | 39917 ft | 389 kts | 271° |
| 2026-05-07 23:16 | 41.51819 | -91.46461 | 39920 ft | 390 kts | 271° |
| 2026-05-07 23:17 | 41.51861 | -91.53700 | 39912 ft | 390 kts | 271° |
| 2026-05-07 23:17 | 41.51899 | -91.60947 | 39916 ft | 390 kts | 271° |
| 2026-05-07 23:18 | 41.51762 | -91.68161 | 39910 ft | 392 kts | 269° |
| 2026-05-07 23:18 | 41.51490 | -91.75431 | 39912 ft | 392 kts | 269° |
| 2026-05-07 23:19 | 41.51224 | -91.82706 | 39905 ft | 392 kts | 269° |
| 2026-05-07 23:19 | 41.50972 | -91.89953 | 39905 ft | 393 kts | 269° |
| 2026-05-07 23:20 | 41.50723 | -91.97244 | 39904 ft | 392 kts | 269° |
| 2026-05-07 23:20 | 41.50472 | -92.04525 | 39909 ft | 393 kts | 269° |
| 2026-05-07 23:21 | 41.50216 | -92.11821 | 39897 ft | 393 kts | 269° |
| 2026-05-07 23:21 | 41.49958 | -92.19058 | 39900 ft | 392 kts | 269° |
| 2026-05-07 23:22 | 41.49693 | -92.26333 | 39900 ft | 392 kts | 269° |
| 2026-05-07 23:22 | 41.49424 | -92.33601 | 39899 ft | 392 kts | 269° |
| 2026-05-07 23:23 | 41.49150 | -92.40880 | 39898 ft | 392 kts | 269° |
| 2026-05-07 23:23 | 41.48874 | -92.48096 | 39896 ft | 392 kts | 269° |
| 2026-05-07 23:24 | 41.48594 | -92.55358 | 39898 ft | 392 kts | 269° |
| 2026-05-07 23:24 | 41.48305 | -92.62614 | 39900 ft | 391 kts | 269° |
| 2026-05-07 23:25 | 41.48012 | -92.69855 | 39898 ft | 390 kts | 268° |
| 2026-05-07 23:25 | 41.47717 | -92.77096 | 39894 ft | 390 kts | 268° |
| 2026-05-07 23:26 | 41.47418 | -92.84330 | 39886 ft | 390 kts | 268° |
| 2026-05-07 23:26 | 41.47117 | -92.91505 | 39890 ft | 390 kts | 268° |
| 2026-05-07 23:27 | 41.46654 | -93.02328 | 39890 ft | 389 kts | 268° |
| 2026-05-07 23:27 | 41.46340 | -93.09548 | 39882 ft | 390 kts | 268° |
| 2026-05-07 23:28 | 41.46024 | -93.16755 | 39878 ft | 390 kts | 268° |
| 2026-05-07 23:28 | 41.45704 | -93.23979 | 39867 ft | 391 kts | 268° |
| 2026-05-07 23:29 | 41.45380 | -93.31171 | 39872 ft | 391 kts | 268° |
| 2026-05-07 23:29 | 41.45049 | -93.38397 | 39871 ft | 391 kts | 268° |
| 2026-05-07 23:30 | 41.44714 | -93.45622 | 39873 ft | 391 kts | 268° |
| 2026-05-07 23:30 | 41.44375 | -93.52856 | 39874 ft | 391 kts | 268° |
| 2026-05-07 23:31 | 41.44031 | -93.60093 | 39869 ft | 391 kts | 268° |
| 2026-05-07 23:31 | 41.43825 | -93.67284 | 39870 ft | 390 kts | 273° |
| 2026-05-07 23:32 | 41.44223 | -93.74499 | 39871 ft | 390 kts | 275° |
| 2026-05-07 23:32 | 41.44693 | -93.81716 | 39871 ft | 391 kts | 275° |
| 2026-05-07 23:33 | 41.45126 | -93.88945 | 39870 ft | 392 kts | 275° |
| 2026-05-07 23:33 | 41.45531 | -93.96225 | 39356 ft | 392 kts | 275° |
| 2026-05-07 23:34 | 41.45726 | -93.99835 | 38596 ft | 391 kts | 274° |
| 2026-05-07 23:34 | 41.45919 | -94.03450 | 37906 ft | 389 kts | 275° |
| 2026-05-07 23:34 | 41.46109 | -94.07042 | 37210 ft | 387 kts | 275° |
| 2026-05-07 23:34 | 41.46297 | -94.10620 | 36470 ft | 386 kts | 275° |
| 2026-05-07 23:35 | 41.46484 | -94.14183 | 35698 ft | 385 kts | 275° |
| 2026-05-07 23:35 | 41.46671 | -94.17749 | 34834 ft | 387 kts | 276° |
| 2026-05-07 23:35 | 41.46856 | -94.21292 | 33968 ft | 389 kts | 276° |
| 2026-05-07 23:35 | 41.47042 | -94.24892 | 33058 ft | 390 kts | 276° |
| 2026-05-07 23:36 | 41.47228 | -94.28513 | 32103 ft | 392 kts | 276° |
| 2026-05-07 23:36 | 41.47414 | -94.32149 | 31108 ft | 393 kts | 276° |
| 2026-05-07 23:36 | 41.47599 | -94.35797 | 30068 ft | 396 kts | 276° |
| 2026-05-07 23:36 | 41.47783 | -94.39464 | 29107 ft | 395 kts | 277° |
| 2026-05-07 23:37 | 41.47963 | -94.43093 | 28315 ft | 391 kts | 277° |
| 2026-05-07 23:37 | 41.48141 | -94.46701 | 27520 ft | 388 kts | 277° |
| 2026-05-07 23:37 | 41.48317 | -94.50280 | 26727 ft | 385 kts | 277° |
| 2026-05-07 23:37 | 41.48491 | -94.53827 | 25957 ft | 382 kts | 277° |
| 2026-05-07 23:38 | 41.48663 | -94.57357 | 25183 ft | 380 kts | 277° |
| 2026-05-07 23:38 | 41.48832 | -94.60849 | 24406 ft | 376 kts | 277° |
| 2026-05-07 23:38 | 41.48998 | -94.64313 | 23634 ft | 371 kts | 277° |
| 2026-05-07 23:38 | 41.49161 | -94.67726 | 22873 ft | 366 kts | 277° |
| 2026-05-07 23:39 | 41.49321 | -94.71092 | 22117 ft | 362 kts | 277° |
| 2026-05-07 23:39 | 41.49478 | -94.74390 | 21374 ft | 358 kts | 277° |
| 2026-05-07 23:39 | 41.49634 | -94.77682 | 20631 ft | 355 kts | 277° |
| 2026-05-07 23:39 | 41.49788 | -94.80969 | 19889 ft | 354 kts | 277° |
| 2026-05-07 23:40 | 41.49940 | -94.84244 | 19148 ft | 352 kts | 277° |
| 2026-05-07 23:40 | 41.50089 | -94.87479 | 18400 ft | 348 kts | 277° |
| 2026-05-07 23:40 | 41.50236 | -94.90687 | 17666 ft | 343 kts | 277° |
| 2026-05-07 23:40 | 41.50380 | -94.93858 | 16935 ft | 340 kts | 277° |
| 2026-05-07 23:41 | 41.50522 | -94.96989 | 16207 ft | 336 kts | 277° |
| 2026-05-07 23:41 | 41.50660 | -95.00061 | 15508 ft | 336 kts | 276° |
| 2026-05-07 23:41 | 41.50801 | -95.03179 | 14792 ft | 338 kts | 276° |
| 2026-05-07 23:41 | 41.50942 | -95.06304 | 14063 ft | 336 kts | 275° |
| 2026-05-07 23:42 | 41.51078 | -95.09401 | 13352 ft | 333 kts | 275° |
| 2026-05-07 23:42 | 41.51208 | -95.12468 | 12653 ft | 330 kts | 275° |
| 2026-05-07 23:42 | 41.51204 | -95.15524 | 11971 ft | 329 kts | 263° |
| 2026-05-07 23:42 | 41.50672 | -95.18515 | 11340 ft | 333 kts | 257° |
| 2026-05-07 23:43 | 41.50040 | -95.21500 | 10610 ft | 335 kts | 255° |
| 2026-05-07 23:43 | 41.49351 | -95.24400 | 10404 ft | 319 kts | 253° |
| 2026-05-07 23:43 | 41.48666 | -95.27115 | 10247 ft | 304 kts | 253° |
| 2026-05-07 23:43 | 41.48008 | -95.29709 | 10113 ft | 288 kts | 253° |
| 2026-05-07 23:44 | 41.47377 | -95.32186 | 9979 ft | 276 kts | 249° |
| 2026-05-07 23:44 | 41.46464 | -95.34392 | 9916 ft | 269 kts | 239° |
| 2026-05-07 23:44 | 41.45420 | -95.36432 | 9647 ft | 265 kts | 237° |
| 2026-05-07 23:44 | 41.44361 | -95.38440 | 9298 ft | 262 kts | 237° |
| 2026-05-07 23:45 | 41.43319 | -95.40429 | 8931 ft | 261 kts | 236° |
| 2026-05-07 23:45 | 41.42289 | -95.42415 | 8557 ft | 259 kts | 237° |
| 2026-05-07 23:45 | 41.41271 | -95.44392 | 8217 ft | 258 kts | 237° |
| 2026-05-07 23:45 | 41.40265 | -95.46364 | 7855 ft | 257 kts | 237° |
| 2026-05-07 23:46 | 41.39278 | -95.48309 | 7543 ft | 255 kts | 237° |
| 2026-05-07 23:46 | 41.38287 | -95.50264 | 7287 ft | 253 kts | 237° |
| 2026-05-07 23:46 | 41.37303 | -95.52208 | 6923 ft | 252 kts | 237° |
| 2026-05-07 23:46 | 41.36326 | -95.54141 | 6575 ft | 251 kts | 237° |
| 2026-05-07 23:47 | 41.35352 | -95.56066 | 6230 ft | 251 kts | 237° |
| 2026-05-07 23:47 | 41.34382 | -95.57986 | 5872 ft | 250 kts | 237° |
| 2026-05-07 23:47 | 41.33411 | -95.59901 | 5529 ft | 249 kts | 237° |
| 2026-05-07 23:47 | 41.32443 | -95.61811 | 5168 ft | 249 kts | 237° |
| 2026-05-07 23:48 | 41.31475 | -95.63722 | 4821 ft | 249 kts | 237° |
| 2026-05-07 23:48 | 41.30507 | -95.65630 | 4445 ft | 249 kts | 237° |
| 2026-05-07 23:48 | 41.29505 | -95.67515 | 4039 ft | 247 kts | 234° |
| 2026-05-07 23:48 | 41.28497 | -95.69268 | 3762 ft | 237 kts | 234° |
| 2026-05-07 23:49 | 41.27510 | -95.70969 | 3530 ft | 226 kts | 234° |
| 2026-05-07 23:49 | 41.26578 | -95.72582 | 3358 ft | 212 kts | 234° |
| 2026-05-07 23:49 | 41.25723 | -95.74101 | 3153 ft | 198 kts | 235° |
| 2026-05-07 23:49 | 41.24926 | -95.75527 | 3026 ft | 187 kts | 235° |
| 2026-05-07 23:50 | 41.24166 | -95.76901 | 2922 ft | 182 kts | 238° |
| 2026-05-07 23:50 | 41.23583 | -95.78331 | 2811 ft | 169 kts | 252° |
| 2026-05-07 23:50 | 41.23380 | -95.79770 | 2695 ft | 154 kts | 269° |
| 2026-05-07 23:50 | 41.23453 | -95.81145 | 2577 ft | 147 kts | 282° |
| 2026-05-07 23:51 | 41.23751 | -95.82401 | 2407 ft | 139 kts | 295° |
| 2026-05-07 23:51 | 41.24211 | -95.83464 | 2315 ft | 128 kts | 307° |
| 2026-05-07 23:51 | 41.24837 | -95.84290 | 2120 ft | 125 kts | 320° |
| 2026-05-07 23:51 | 41.25520 | -95.85019 | 1949 ft | 127 kts | 324° |
| 2026-05-07 23:52 | 41.26226 | -95.85709 | 1784 ft | 125 kts | 324° |
| 2026-05-07 23:52 | 41.26928 | -95.86377 | 1622 ft | 123 kts | 323° |
| 2026-05-07 23:52 | 41.27644 | -95.87017 | 1433 ft | 124 kts | 325° |
| 2026-05-07 23:52 | 41.28316 | -95.87728 | 1232 ft | 126 kts | 325° |
| 2026-05-07 23:53 | 41.29052 | -95.88400 | 1101 ft | 130 kts | 324° |
| 2026-05-07 23:53 | 41.29775 | -95.89091 | 998 ft | 127 kts | 323° |
| 2026-05-07 23:53 | 41.30533 | -95.89838 | 1956 ft | 128 kts | 322° |
| 2026-05-07 23:53 | 41.31322 | -95.90611 | 2889 ft | 168 kts | 323° |
| 2026-05-07 23:54 | 41.32121 | -95.91857 | 3821 ft | 181 kts | 282° |
| 2026-05-07 23:54 | 41.31864 | -95.93491 | 4593 ft | 202 kts | 237° |
| 2026-05-07 23:54 | 41.30777 | -95.94560 | 5227 ft | 194 kts | 197° |
| 2026-05-07 23:54 | 41.29434 | -95.94595 | 5371 ft | 198 kts | 179° |
| 2026-05-07 23:55 | 41.27947 | -95.94567 | 4678 ft | 226 kts | 185° |
| 2026-05-07 23:55 | 41.26413 | -95.94602 | 4654 ft | 212 kts | 182° |
| 2026-05-07 23:55 | 41.24920 | -95.94581 | 4385 ft | 221 kts | 182° |
| 2026-05-07 23:55 | 41.23369 | -95.94293 | 3987 ft | 229 kts | 162° |
| 2026-05-07 23:56 | 41.22483 | -95.93584 | 3941 ft | 225 kts | 138° |
| 2026-05-07 23:56 | 41.21578 | -95.91084 | 3941 ft | 234 kts | 98° |
| 2026-05-07 23:56 | 41.21611 | -95.89015 | 3847 ft | 215 kts | 79° |
| 2026-05-07 23:56 | 41.22111 | -95.87212 | 3477 ft | 207 kts | 56° |
| 2026-05-07 23:57 | 41.23014 | -95.85890 | 3408 ft | 172 kts | 35° |
| 2026-05-07 23:57 | 41.23949 | -95.85167 | 3219 ft | 149 kts | 17° |
| 2026-05-07 23:57 | 41.24605 | -95.84950 | 2995 ft | 142 kts | 1° |
| 2026-05-07 23:57 | 41.25539 | -95.85112 | 2649 ft | 133 kts | 333° |
| 2026-05-07 23:58 | 41.26285 | -95.85771 | 2247 ft | 130 kts | 321° |
| 2026-05-07 23:58 | 41.27011 | -95.86478 | 1889 ft | 126 kts | 325° |
| 2026-05-07 23:58 | 41.27719 | -95.87126 | 1573 ft | 124 kts | 322° |
| 2026-05-07 23:58 | 41.28415 | -95.87801 | 1313 ft | 122 kts | 325° |
| 2026-05-07 23:59 | 41.29104 | -95.88448 | 1079 ft | 122 kts | 323° |
| 2026-05-07 23:59 | 41.29810 | -95.89116 | 985 ft | 119 kts | 324° |
| 2026-05-07 23:59 | 41.30365 | -95.89640 | 983 ft | 68 kts | 324° |
| 2026-05-07 23:59 | 41.30547 | -95.89866 | 983 ft | 24 kts | 268° |
| 2026-05-08 00:00 | 41.30458 | -95.90001 | 984 ft | 13 kts | 178° |
| 2026-05-08 00:00 | 41.30378 | -95.89947 | 984 ft | 13 kts | 144° |
| 2026-05-08 00:00 | 41.30306 | -95.89877 | 988 ft | 13 kts | 143° |
| 2026-05-08 00:00 | 41.30239 | -95.89805 | 984 ft | 12 kts | 133° |
| 2026-05-08 00:01 | 41.30172 | -95.89737 | 986 ft | 12 kts | 149° |
| 2026-05-08 00:01 | 41.30116 | -95.89706 | 986 ft | 8 kts | 195° |
| 2026-05-08 00:01 | 41.30098 | -95.89771 | 984 ft | 8 kts | 273° |
| 2026-05-08 00:01 | 41.30099 | -95.89780 | 984 ft | 0 kts | 274° |